sensor_id;sensor_type;location;lat;lon;timestamp;temperature;humidity
3614;DHT22;1821;50.936;6.854;2023-03-04T00:00:03;3.50;1.00
3614;DHT22;1821;50.936;6.854;2023-03-04T00:00:45;3.50;1.00
3614;DHT22;1821;50.936;6.854;2023-03-04T00:01:28;3.70;99.90
3614;DHT22;1821;50.936;6.854;2023-03-04T00:02:10;3.40;99.90
3614;DHT22;1821;50.936;6.854;2023-03-04T00:02:52;3.50;99.90
3614;DHT22;1821;50.936;6.854;2023-03-04T00:03:33;3.30;99.90
3614;DHT22;1821;50.936;6.854;2023-03-04T00:04:16;3.40;99.90
3614;DHT22;1821;50.936;6.854;2023-03-04T00:04:58;4.30;1.00
3614;DHT22;1821;50.936;6.854;2023-03-04T00:05:40;3.40;1.00
3614;DHT22;1821;50.936;6.854;2023-03-04T00:06:22;3.50;99.90
3614;DHT22;1821;50.936;6.854;2023-03-04T00:07:04;3.60;99.90
3614;DHT22;1821;50.936;6.854;2023-03-04T00:07:45;3.40;99.90
3614;DHT22;1821;50.936;6.854;2023-03-04T00:08:27;3.50;99.90
3614;DHT22;1821;50.936;6.854;2023-03-04T00:09:09;4.30;99.90
3614;DHT22;1821;50.936;6.854;2023-03-04T00:09:51;3.50;99.90
3614;DHT22;1821;50.936;6.854;2023-03-04T00:10:32;3.60;99.90
3614;DHT22;1821;50.936;6.854;2023-03-04T00:11:14;3.70;99.90
3614;DHT22;1821;50.936;6.854;2023-03-04T00:11:56;3.70;1.00
3614;DHT22;1821;50.936;6.854;2023-03-04T00:12:38;3.50;1.00
3614;DHT22;1821;50.936;6.854;2023-03-04T00:13:19;3.60;1.00
3614;DHT22;1821;50.936;6.854;2023-03-04T00:14:02;5.40;1.00
3614;DHT22;1821;50.936;6.854;2023-03-04T00:14:44;3.50;99.90
3614;DHT22;1821;50.936;6.854;2023-03-04T00:15:26;3.60;99.90
3614;DHT22;1821;50.936;6.854;2023-03-04T00:16:08;3.60;99.90
3614;DHT22;1821;50.936;6.854;2023-03-04T00:16:49;3.90;99.90
3614;DHT22;1821;50.936;6.854;2023-03-04T00:17:31;3.50;1.00
3614;DHT22;1821;50.936;6.854;2023-03-04T00:18:13;3.70;1.00
3614;DHT22;1821;50.936;6.854;2023-03-04T00:18:56;3.50;1.00
3614;DHT22;1821;50.936;6.854;2023-03-04T00:19:37;3.40;97.60
3614;DHT22;1821;50.936;6.854;2023-03-04T00:20:19;3.40;99.90
3614;DHT22;1821;50.936;6.854;2023-03-04T00:21:01;3.70;70.80
3614;DHT22;1821;50.936;6.854;2023-03-04T00:21:43;3.40;1.00
3614;DHT22;1821;50.936;6.854;2023-03-04T00:22:25;3.60;1.00
3614;DHT22;1821;50.936;6.854;2023-03-04T00:23:07;3.50;92.70
3614;DHT22;1821;50.936;6.854;2023-03-04T00:23:49;3.50;99.90
3614;DHT22;1821;50.936;6.854;2023-03-04T00:24:31;3.70;99.90
3614;DHT22;1821;50.936;6.854;2023-03-04T00:25:13;3.50;1.00
3614;DHT22;1821;50.936;6.854;2023-03-04T00:25:54;3.60;1.00
3614;DHT22;1821;50.936;6.854;2023-03-04T00:26:36;3.60;1.00
3614;DHT22;1821;50.936;6.854;2023-03-04T00:27:18;3.90;40.00
3614;DHT22;1821;50.936;6.854;2023-03-04T00:27:59;3.50;99.90
3614;DHT22;1821;50.936;6.854;2023-03-04T00:28:41;3.60;99.90
3614;DHT22;1821;50.936;6.854;2023-03-04T00:29:23;3.40;23.70
3614;DHT22;1821;50.936;6.854;2023-03-04T00:30:06;3.50;56.90
3614;DHT22;1821;50.936;6.854;2023-03-04T00:30:48;3.70;16.10
3614;DHT22;1821;50.936;6.854;2023-03-04T00:31:30;3.50;1.00
3614;DHT22;1821;50.936;6.854;2023-03-04T00:32:12;3.70;1.00
3614;DHT22;1821;50.936;6.854;2023-03-04T00:32:53;3.40;1.00
3614;DHT22;1821;50.936;6.854;2023-03-04T00:33:35;3.60;80.90
3614;DHT22;1821;50.936;6.854;2023-03-04T00:34:17;3.60;13.50
3614;DHT22;1821;50.936;6.854;2023-03-04T00:34:59;3.30;1.00
3614;DHT22;1821;50.936;6.854;2023-03-04T00:35:41;3.60;1.00
3614;DHT22;1821;50.936;6.854;2023-03-04T00:36:23;3.40;1.00
3614;DHT22;1821;50.936;6.854;2023-03-04T00:37:05;3.50;1.00
3614;DHT22;1821;50.936;6.854;2023-03-04T00:37:47;3.50;1.00
3614;DHT22;1821;50.936;6.854;2023-03-04T00:38:29;3.60;1.00
3614;DHT22;1821;50.936;6.854;2023-03-04T00:39:11;3.50;1.00
3614;DHT22;1821;50.936;6.854;2023-03-04T00:39:54;3.70;89.80
3614;DHT22;1821;50.936;6.854;2023-03-04T00:40:35;3.60;1.00
3614;DHT22;1821;50.936;6.854;2023-03-04T00:41:17;3.60;1.00
3614;DHT22;1821;50.936;6.854;2023-03-04T00:41:59;3.70;1.00
3614;DHT22;1821;50.936;6.854;2023-03-04T00:42:40;3.70;1.00
3614;DHT22;1821;50.936;6.854;2023-03-04T00:43:22;3.80;1.00
3614;DHT22;1821;50.936;6.854;2023-03-04T00:44:05;3.80;1.00
3614;DHT22;1821;50.936;6.854;2023-03-04T00:44:49;3.60;1.00
3614;DHT22;1821;50.936;6.854;2023-03-04T00:45:32;3.40;1.00
3614;DHT22;1821;50.936;6.854;2023-03-04T00:46:13;3.60;1.00
3614;DHT22;1821;50.936;6.854;2023-03-04T00:46:55;3.70;1.00
3614;DHT22;1821;50.936;6.854;2023-03-04T00:47:39;3.90;1.00
3614;DHT22;1821;50.936;6.854;2023-03-04T00:48:21;3.80;1.00
3614;DHT22;1821;50.936;6.854;2023-03-04T00:49:03;3.40;1.00
3614;DHT22;1821;50.936;6.854;2023-03-04T00:49:45;3.60;1.00
3614;DHT22;1821;50.936;6.854;2023-03-04T00:50:27;3.70;99.90
3614;DHT22;1821;50.936;6.854;2023-03-04T00:51:09;3.70;99.90
3614;DHT22;1821;50.936;6.854;2023-03-04T00:51:51;3.90;99.90
3614;DHT22;1821;50.936;6.854;2023-03-04T00:52:33;3.80;99.90
3614;DHT22;1821;50.936;6.854;2023-03-04T00:53:14;3.70;99.90
3614;DHT22;1821;50.936;6.854;2023-03-04T00:53:56;4.00;99.90
3614;DHT22;1821;50.936;6.854;2023-03-04T00:54:41;3.70;99.90
3614;DHT22;1821;50.936;6.854;2023-03-04T00:55:23;3.40;99.90
3614;DHT22;1821;50.936;6.854;2023-03-04T00:56:05;3.60;1.00
3614;DHT22;1821;50.936;6.854;2023-03-04T00:56:47;3.70;99.90
3614;DHT22;1821;50.936;6.854;2023-03-04T00:57:29;3.90;99.90
3614;DHT22;1821;50.936;6.854;2023-03-04T00:58:11;3.80;99.90
3614;DHT22;1821;50.936;6.854;2023-03-04T00:58:53;3.50;19.30
3614;DHT22;1821;50.936;6.854;2023-03-04T00:59:35;3.20;4.40
3614;DHT22;1821;50.936;6.854;2023-03-04T01:00:17;3.80;81.70
3614;DHT22;1821;50.936;6.854;2023-03-04T01:00:59;3.60;1.00
3614;DHT22;1821;50.936;6.854;2023-03-04T01:01:41;3.90;1.00
3614;DHT22;1821;50.936;6.854;2023-03-04T01:02:23;3.70;1.00
3614;DHT22;1821;50.936;6.854;2023-03-04T01:03:05;3.60;1.00
3614;DHT22;1821;50.936;6.854;2023-03-04T01:03:47;3.80;1.00
3614;DHT22;1821;50.936;6.854;2023-03-04T01:04:28;4.10;99.90
3614;DHT22;1821;50.936;6.854;2023-03-04T01:05:13;3.50;99.90
3614;DHT22;1821;50.936;6.854;2023-03-04T01:05:56;3.70;99.90
3614;DHT22;1821;50.936;6.854;2023-03-04T01:06:37;3.70;99.90
3614;DHT22;1821;50.936;6.854;2023-03-04T01:07:19;3.70;99.90
3614;DHT22;1821;50.936;6.854;2023-03-04T01:08:02;3.70;99.90
3614;DHT22;1821;50.936;6.854;2023-03-04T01:08:44;4.10;1.00
3614;DHT22;1821;50.936;6.854;2023-03-04T01:09:25;3.70;99.90
3614;DHT22;1821;50.936;6.854;2023-03-04T01:10:09;3.50;99.90
3614;DHT22;1821;50.936;6.854;2023-03-04T01:10:53;3.80;99.90
3614;DHT22;1821;50.936;6.854;2023-03-04T01:11:35;3.70;1.00
3614;DHT22;1821;50.936;6.854;2023-03-04T01:12:17;3.90;1.00
3614;DHT22;1821;50.936;6.854;2023-03-04T01:12:59;3.70;1.00
3614;DHT22;1821;50.936;6.854;2023-03-04T01:13:41;3.90;99.90
3614;DHT22;1821;50.936;6.854;2023-03-04T01:14:23;3.70;99.90
3614;DHT22;1821;50.936;6.854;2023-03-04T01:15:06;3.70;99.90
3614;DHT22;1821;50.936;6.854;2023-03-04T01:15:48;3.90;99.90
3614;DHT22;1821;50.936;6.854;2023-03-04T01:16:30;4.00;99.90
3614;DHT22;1821;50.936;6.854;2023-03-04T01:17:12;3.90;99.90
3614;DHT22;1821;50.936;6.854;2023-03-04T01:17:54;3.80;99.90
3614;DHT22;1821;50.936;6.854;2023-03-04T01:18:38;3.80;99.90
3614;DHT22;1821;50.936;6.854;2023-03-04T01:19:22;3.90;99.90
3614;DHT22;1821;50.936;6.854;2023-03-04T01:20:06;3.50;1.00
3614;DHT22;1821;50.936;6.854;2023-03-04T01:21:31;3.60;99.90
3614;DHT22;1821;50.936;6.854;2023-03-04T01:22:12;3.80;1.00
3614;DHT22;1821;50.936;6.854;2023-03-04T01:22:56;4.00;1.00
3614;DHT22;1821;50.936;6.854;2023-03-04T01:23:37;3.90;99.90
3614;DHT22;1821;50.936;6.854;2023-03-04T01:24:19;3.80;99.90
3614;DHT22;1821;50.936;6.854;2023-03-04T01:25:02;3.70;99.90
3614;DHT22;1821;50.936;6.854;2023-03-04T01:25:44;4.00;99.90
3614;DHT22;1821;50.936;6.854;2023-03-04T01:26:26;4.00;99.90
3614;DHT22;1821;50.936;6.854;2023-03-04T01:27:08;2.20;99.90
3614;DHT22;1821;50.936;6.854;2023-03-04T01:27:49;3.90;99.90
3614;DHT22;1821;50.936;6.854;2023-03-04T01:28:34;4.00;99.90
3614;DHT22;1821;50.936;6.854;2023-03-04T01:29:16;3.90;99.90
3614;DHT22;1821;50.936;6.854;2023-03-04T01:29:58;3.80;99.90
3614;DHT22;1821;50.936;6.854;2023-03-04T01:30:40;3.90;99.90
3614;DHT22;1821;50.936;6.854;2023-03-04T01:31:22;3.70;99.90
3614;DHT22;1821;50.936;6.854;2023-03-04T01:32:04;4.10;99.90
3614;DHT22;1821;50.936;6.854;2023-03-04T01:32:46;4.10;99.90
3614;DHT22;1821;50.936;6.854;2023-03-04T01:33:29;3.90;99.90
3614;DHT22;1821;50.936;6.854;2023-03-04T01:34:55;3.80;1.00
3614;DHT22;1821;50.936;6.854;2023-03-04T01:35:37;4.00;99.90
3614;DHT22;1821;50.936;6.854;2023-03-04T01:36:19;3.90;99.90
3614;DHT22;1821;50.936;6.854;2023-03-04T01:37:01;3.90;1.00
3614;DHT22;1821;50.936;6.854;2023-03-04T01:37:43;3.80;1.00
3614;DHT22;1821;50.936;6.854;2023-03-04T01:38:25;3.70;1.00
3614;DHT22;1821;50.936;6.854;2023-03-04T01:39:07;3.80;1.00
3614;DHT22;1821;50.936;6.854;2023-03-04T01:39:49;3.80;1.00
3614;DHT22;1821;50.936;6.854;2023-03-04T01:40:33;3.80;1.00
3614;DHT22;1821;50.936;6.854;2023-03-04T01:41:16;3.60;25.30
3614;DHT22;1821;50.936;6.854;2023-03-04T01:41:59;3.80;99.90
3614;DHT22;1821;50.936;6.854;2023-03-04T01:42:42;3.90;99.90
3614;DHT22;1821;50.936;6.854;2023-03-04T01:43:26;3.80;99.90
3614;DHT22;1821;50.936;6.854;2023-03-04T01:44:10;3.90;99.90
3614;DHT22;1821;50.936;6.854;2023-03-04T01:44:52;4.00;99.90
3614;DHT22;1821;50.936;6.854;2023-03-04T01:45:35;3.80;99.90
3614;DHT22;1821;50.936;6.854;2023-03-04T01:46:20;3.90;99.90
3614;DHT22;1821;50.936;6.854;2023-03-04T01:47:02;4.00;99.90
3614;DHT22;1821;50.936;6.854;2023-03-04T01:47:47;3.90;99.90
3614;DHT22;1821;50.936;6.854;2023-03-04T01:48:34;4.10;1.00
3614;DHT22;1821;50.936;6.854;2023-03-04T01:49:18;4.00;99.90
3614;DHT22;1821;50.936;6.854;2023-03-04T01:50:03;4.00;99.90
3614;DHT22;1821;50.936;6.854;2023-03-04T01:50:48;3.90;99.90
3614;DHT22;1821;50.936;6.854;2023-03-04T01:51:30;3.80;25.40
3614;DHT22;1821;50.936;6.854;2023-03-04T01:52:12;3.90;99.90
3614;DHT22;1821;50.936;6.854;2023-03-04T01:52:54;3.70;61.30
3614;DHT22;1821;50.936;6.854;2023-03-04T01:53:36;3.90;7.40
3614;DHT22;1821;50.936;6.854;2023-03-04T01:54:19;3.90;99.90
3614;DHT22;1821;50.936;6.854;2023-03-04T01:55:05;4.00;94.80
3614;DHT22;1821;50.936;6.854;2023-03-04T01:55:47;4.00;99.90
3614;DHT22;1821;50.936;6.854;2023-03-04T01:56:37;4.00;99.90
3614;DHT22;1821;50.936;6.854;2023-03-04T01:57:24;3.80;99.90
3614;DHT22;1821;50.936;6.854;2023-03-04T01:58:09;3.90;99.90
3614;DHT22;1821;50.936;6.854;2023-03-04T01:59:19;3.80;99.90
3614;DHT22;1821;50.936;6.854;2023-03-04T02:00:29;3.90;99.90
3614;DHT22;1821;50.936;6.854;2023-03-04T02:01:12;3.90;29.60
3614;DHT22;1821;50.936;6.854;2023-03-04T02:01:59;3.80;8.80
3614;DHT22;1821;50.936;6.854;2023-03-04T02:02:41;4.00;1.00
3614;DHT22;1821;50.936;6.854;2023-03-04T02:03:23;3.80;25.00
3614;DHT22;1821;50.936;6.854;2023-03-04T02:04:06;3.90;1.00
3614;DHT22;1821;50.936;6.854;2023-03-04T02:04:48;3.80;1.00
3614;DHT22;1821;50.936;6.854;2023-03-04T02:05:30;3.90;1.00
3614;DHT22;1821;50.936;6.854;2023-03-04T02:06:12;3.80;1.00
3614;DHT22;1821;50.936;6.854;2023-03-04T02:06:55;3.90;1.00
3614;DHT22;1821;50.936;6.854;2023-03-04T02:07:38;4.00;1.00
3614;DHT22;1821;50.936;6.854;2023-03-04T02:08:22;3.80;1.00
3614;DHT22;1821;50.936;6.854;2023-03-04T02:09:06;3.90;1.00
3614;DHT22;1821;50.936;6.854;2023-03-04T02:09:50;4.10;1.00
3614;DHT22;1821;50.936;6.854;2023-03-04T02:10:32;4.00;1.00
3614;DHT22;1821;50.936;6.854;2023-03-04T02:11:15;4.10;99.90
3614;DHT22;1821;50.936;6.854;2023-03-04T02:11:57;4.10;99.90
3614;DHT22;1821;50.936;6.854;2023-03-04T02:12:39;4.00;1.00
3614;DHT22;1821;50.936;6.854;2023-03-04T02:13:21;4.00;99.90
3614;DHT22;1821;50.936;6.854;2023-03-04T02:14:04;4.10;99.90
3614;DHT22;1821;50.936;6.854;2023-03-04T02:14:46;3.90;99.90
3614;DHT22;1821;50.936;6.854;2023-03-04T02:15:29;4.00;99.90
3614;DHT22;1821;50.936;6.854;2023-03-04T02:16:13;3.90;99.90
3614;DHT22;1821;50.936;6.854;2023-03-04T02:16:57;4.00;99.90
3614;DHT22;1821;50.936;6.854;2023-03-04T02:17:39;3.90;99.90
3614;DHT22;1821;50.936;6.854;2023-03-04T02:18:23;4.30;99.90
3614;DHT22;1821;50.936;6.854;2023-03-04T02:21:57;4.00;1.00
3614;DHT22;1821;50.936;6.854;2023-03-04T02:22:45;3.90;99.90
3614;DHT22;1821;50.936;6.854;2023-03-04T02:23:36;4.10;99.90
3614;DHT22;1821;50.936;6.854;2023-03-04T02:24:30;4.20;1.00
3614;DHT22;1821;50.936;6.854;2023-03-04T02:25:21;4.00;99.90
3614;DHT22;1821;50.936;6.854;2023-03-04T02:26:57;4.10;99.90
3614;DHT22;1821;50.936;6.854;2023-03-04T02:27:40;4.00;99.90
3614;DHT22;1821;50.936;6.854;2023-03-04T02:28:22;4.20;99.90
3614;DHT22;1821;50.936;6.854;2023-03-04T02:29:03;4.20;99.90
3614;DHT22;1821;50.936;6.854;2023-03-04T02:29:45;5.50;1.00
3614;DHT22;1821;50.936;6.854;2023-03-04T02:30:27;4.10;30.90
3614;DHT22;1821;50.936;6.854;2023-03-04T02:32:12;4.00;99.90
3614;DHT22;1821;50.936;6.854;2023-03-04T02:32:55;4.20;28.50
3614;DHT22;1821;50.936;6.854;2023-03-04T02:33:37;4.10;18.50
3614;DHT22;1821;50.936;6.854;2023-03-04T02:34:29;4.00;1.00
3614;DHT22;1821;50.936;6.854;2023-03-04T02:35:18;4.10;1.00
3614;DHT22;1821;50.936;6.854;2023-03-04T02:36:00;4.10;1.00
3614;DHT22;1821;50.936;6.854;2023-03-04T02:36:43;4.20;1.00
3614;DHT22;1821;50.936;6.854;2023-03-04T02:37:28;4.10;72.60
3614;DHT22;1821;50.936;6.854;2023-03-04T02:38:12;4.10;99.90
3614;DHT22;1821;50.936;6.854;2023-03-04T02:38:59;4.10;99.90
3614;DHT22;1821;50.936;6.854;2023-03-04T02:39:44;4.20;99.90
3614;DHT22;1821;50.936;6.854;2023-03-04T02:40:29;4.20;14.90
3614;DHT22;1821;50.936;6.854;2023-03-04T02:41:16;4.00;1.00
3614;DHT22;1821;50.936;6.854;2023-03-04T02:42:01;4.10;1.00
3614;DHT22;1821;50.936;6.854;2023-03-04T02:42:44;4.10;1.00
3614;DHT22;1821;50.936;6.854;2023-03-04T02:43:28;4.00;1.00
3614;DHT22;1821;50.936;6.854;2023-03-04T02:44:24;3.90;1.00
3614;DHT22;1821;50.936;6.854;2023-03-04T02:45:34;4.20;1.00
3614;DHT22;1821;50.936;6.854;2023-03-04T02:46:16;4.20;1.00
3614;DHT22;1821;50.936;6.854;2023-03-04T02:46:59;4.10;1.00
3614;DHT22;1821;50.936;6.854;2023-03-04T02:47:41;4.20;1.00
3614;DHT22;1821;50.936;6.854;2023-03-04T02:48:23;4.40;1.00
3614;DHT22;1821;50.936;6.854;2023-03-04T02:49:05;4.10;1.00
3614;DHT22;1821;50.936;6.854;2023-03-04T02:49:47;4.20;1.00
3614;DHT22;1821;50.936;6.854;2023-03-04T02:50:33;4.30;1.00
3614;DHT22;1821;50.936;6.854;2023-03-04T02:51:16;4.30;1.00
3614;DHT22;1821;50.936;6.854;2023-03-04T02:52:09;4.10;1.00
3614;DHT22;1821;50.936;6.854;2023-03-04T02:52:53;4.20;99.90
3614;DHT22;1821;50.936;6.854;2023-03-04T02:53:37;4.60;99.90
3614;DHT22;1821;50.936;6.854;2023-03-04T02:54:21;4.00;82.40
3614;DHT22;1821;50.936;6.854;2023-03-04T02:55:04;4.20;55.50
3614;DHT22;1821;50.936;6.854;2023-03-04T02:55:48;4.00;99.90
3614;DHT22;1821;50.936;6.854;2023-03-04T02:56:32;3.90;99.90
3614;DHT22;1821;50.936;6.854;2023-03-04T02:57:14;4.10;99.90
3614;DHT22;1821;50.936;6.854;2023-03-04T02:57:58;4.20;99.90
3614;DHT22;1821;50.936;6.854;2023-03-04T02:58:42;4.20;1.00
3614;DHT22;1821;50.936;6.854;2023-03-04T02:59:24;4.00;1.00
3614;DHT22;1821;50.936;6.854;2023-03-04T03:00:07;4.10;99.90
3614;DHT22;1821;50.936;6.854;2023-03-04T03:00:49;4.00;99.90
3614;DHT22;1821;50.936;6.854;2023-03-04T03:01:31;4.10;99.90
3614;DHT22;1821;50.936;6.854;2023-03-04T03:02:13;4.10;99.90
3614;DHT22;1821;50.936;6.854;2023-03-04T03:02:55;3.90;99.90
3614;DHT22;1821;50.936;6.854;2023-03-04T03:03:37;4.30;1.00
3614;DHT22;1821;50.936;6.854;2023-03-04T03:04:20;4.20;1.00
3614;DHT22;1821;50.936;6.854;2023-03-04T03:05:03;4.20;1.00
3614;DHT22;1821;50.936;6.854;2023-03-04T03:05:45;4.10;1.00
3614;DHT22;1821;50.936;6.854;2023-03-04T03:06:29;4.10;1.00
3614;DHT22;1821;50.936;6.854;2023-03-04T03:08:36;4.20;1.00
3614;DHT22;1821;50.936;6.854;2023-03-04T03:09:18;4.30;1.00
3614;DHT22;1821;50.936;6.854;2023-03-04T03:10:00;4.10;1.00
3614;DHT22;1821;50.936;6.854;2023-03-04T03:10:42;4.20;1.00
3614;DHT22;1821;50.936;6.854;2023-03-04T03:11:24;4.30;1.00
3614;DHT22;1821;50.936;6.854;2023-03-04T03:12:07;4.30;1.00
3614;DHT22;1821;50.936;6.854;2023-03-04T03:12:49;4.20;1.00
3614;DHT22;1821;50.936;6.854;2023-03-04T03:13:31;4.90;1.00
3614;DHT22;1821;50.936;6.854;2023-03-04T03:14:13;4.30;1.00
3614;DHT22;1821;50.936;6.854;2023-03-04T03:14:55;4.10;1.00
3614;DHT22;1821;50.936;6.854;2023-03-04T03:15:37;4.30;1.00
3614;DHT22;1821;50.936;6.854;2023-03-04T03:16:22;4.20;1.00
3614;DHT22;1821;50.936;6.854;2023-03-04T03:17:04;4.20;99.90
3614;DHT22;1821;50.936;6.854;2023-03-04T03:17:47;4.30;1.00
3614;DHT22;1821;50.936;6.854;2023-03-04T03:18:29;4.30;99.90
3614;DHT22;1821;50.936;6.854;2023-03-04T03:19:11;4.20;99.90
3614;DHT22;1821;50.936;6.854;2023-03-04T03:19:53;4.20;1.00
3614;DHT22;1821;50.936;6.854;2023-03-04T03:20:35;4.30;1.00
3614;DHT22;1821;50.936;6.854;2023-03-04T03:21:17;4.20;99.90
3614;DHT22;1821;50.936;6.854;2023-03-04T03:21:59;4.20;99.90
3614;DHT22;1821;50.936;6.854;2023-03-04T03:22:41;4.10;99.90
3614;DHT22;1821;50.936;6.854;2023-03-04T03:23:25;4.30;99.90
3614;DHT22;1821;50.936;6.854;2023-03-04T03:24:07;4.20;99.90
3614;DHT22;1821;50.936;6.854;2023-03-04T03:24:49;4.10;99.90
3614;DHT22;1821;50.936;6.854;2023-03-04T03:25:33;4.40;1.00
3614;DHT22;1821;50.936;6.854;2023-03-04T03:26:18;4.00;1.00
3614;DHT22;1821;50.936;6.854;2023-03-04T03:27:02;4.20;1.00
3614;DHT22;1821;50.936;6.854;2023-03-04T03:27:44;4.10;99.90
3614;DHT22;1821;50.936;6.854;2023-03-04T03:28:27;4.20;99.90
3614;DHT22;1821;50.936;6.854;2023-03-04T03:29:09;4.20;99.90
3614;DHT22;1821;50.936;6.854;2023-03-04T03:29:50;4.20;99.90
3614;DHT22;1821;50.936;6.854;2023-03-04T03:30:32;4.30;99.90
3614;DHT22;1821;50.936;6.854;2023-03-04T03:31:14;4.20;99.90
3614;DHT22;1821;50.936;6.854;2023-03-04T03:31:56;4.20;99.90
3614;DHT22;1821;50.936;6.854;2023-03-04T03:32:38;4.10;1.00
3614;DHT22;1821;50.936;6.854;2023-03-04T03:33:23;4.30;1.00
3614;DHT22;1821;50.936;6.854;2023-03-04T03:34:05;4.20;1.00
3614;DHT22;1821;50.936;6.854;2023-03-04T03:34:46;4.20;71.20
3614;DHT22;1821;50.936;6.854;2023-03-04T03:35:28;4.20;55.50
3614;DHT22;1821;50.936;6.854;2023-03-04T03:36:13;4.30;1.00
3614;DHT22;1821;50.936;6.854;2023-03-04T03:36:55;4.30;1.00
3614;DHT22;1821;50.936;6.854;2023-03-04T03:37:37;4.30;1.00
3614;DHT22;1821;50.936;6.854;2023-03-04T03:38:19;4.00;1.00
3614;DHT22;1821;50.936;6.854;2023-03-04T03:39:00;4.20;1.00
3614;DHT22;1821;50.936;6.854;2023-03-04T03:39:42;4.20;1.00
3614;DHT22;1821;50.936;6.854;2023-03-04T03:40:24;4.20;1.00
3614;DHT22;1821;50.936;6.854;2023-03-04T03:41:06;4.20;1.00
3614;DHT22;1821;50.936;6.854;2023-03-04T03:41:48;4.20;1.00
3614;DHT22;1821;50.936;6.854;2023-03-04T03:42:33;4.20;1.00
3614;DHT22;1821;50.936;6.854;2023-03-04T03:43:14;4.30;99.90
3614;DHT22;1821;50.936;6.854;2023-03-04T03:43:56;4.30;1.00
3614;DHT22;1821;50.936;6.854;2023-03-04T03:44:38;4.40;1.00
3614;DHT22;1821;50.936;6.854;2023-03-04T03:46:05;4.50;99.90
3614;DHT22;1821;50.936;6.854;2023-03-04T03:46:47;4.20;1.00
3614;DHT22;1821;50.936;6.854;2023-03-04T03:47:29;4.20;1.00
3614;DHT22;1821;50.936;6.854;2023-03-04T03:48:10;4.30;1.00
3614;DHT22;1821;50.936;6.854;2023-03-04T03:48:52;4.40;99.90
3614;DHT22;1821;50.936;6.854;2023-03-04T03:49:34;4.20;99.90
3614;DHT22;1821;50.936;6.854;2023-03-04T03:50:16;4.10;99.90
3614;DHT22;1821;50.936;6.854;2023-03-04T03:51:01;4.10;1.00
3614;DHT22;1821;50.936;6.854;2023-03-04T03:51:42;4.30;1.00
3614;DHT22;1821;50.936;6.854;2023-03-04T03:52:25;4.30;83.10
3614;DHT22;1821;50.936;6.854;2023-03-04T03:53:07;4.20;99.90
3614;DHT22;1821;50.936;6.854;2023-03-04T03:53:48;4.10;99.90
3614;DHT22;1821;50.936;6.854;2023-03-04T03:54:32;4.30;99.90
3614;DHT22;1821;50.936;6.854;2023-03-04T03:55:15;4.40;42.60
3614;DHT22;1821;50.936;6.854;2023-03-04T03:55:57;4.30;1.00
3614;DHT22;1821;50.936;6.854;2023-03-04T03:56:39;4.30;1.00
3614;DHT22;1821;50.936;6.854;2023-03-04T03:57:22;4.30;1.00
3614;DHT22;1821;50.936;6.854;2023-03-04T03:58:04;4.20;99.90
3614;DHT22;1821;50.936;6.854;2023-03-04T03:58:46;4.20;99.90
3614;DHT22;1821;50.936;6.854;2023-03-04T03:59:28;4.30;1.00
3614;DHT22;1821;50.936;6.854;2023-03-04T04:00:11;4.40;1.00
3614;DHT22;1821;50.936;6.854;2023-03-04T04:00:53;4.30;1.00
3614;DHT22;1821;50.936;6.854;2023-03-04T04:01:39;4.20;1.00
3614;DHT22;1821;50.936;6.854;2023-03-04T04:02:21;4.40;1.00
3614;DHT22;1821;50.936;6.854;2023-03-04T04:03:03;4.20;38.40
3614;DHT22;1821;50.936;6.854;2023-03-04T04:03:45;4.30;55.20
3614;DHT22;1821;50.936;6.854;2023-03-04T04:04:28;4.30;99.90
3614;DHT22;1821;50.936;6.854;2023-03-04T04:05:10;4.10;12.30
3614;DHT22;1821;50.936;6.854;2023-03-04T04:05:53;4.20;1.00
3614;DHT22;1821;50.936;6.854;2023-03-04T04:06:35;4.30;1.00
3614;DHT22;1821;50.936;6.854;2023-03-04T04:07:17;4.30;99.90
3614;DHT22;1821;50.936;6.854;2023-03-04T04:07:59;4.50;99.90
3614;DHT22;1821;50.936;6.854;2023-03-04T04:08:42;4.20;99.90
3614;DHT22;1821;50.936;6.854;2023-03-04T04:09:24;4.10;99.90
3614;DHT22;1821;50.936;6.854;2023-03-04T04:10:10;4.50;99.90
3614;DHT22;1821;50.936;6.854;2023-03-04T04:10:52;4.10;99.90
3614;DHT22;1821;50.936;6.854;2023-03-04T04:11:34;4.40;99.90
3614;DHT22;1821;50.936;6.854;2023-03-04T04:12:18;4.20;99.90
3614;DHT22;1821;50.936;6.854;2023-03-04T04:13:00;4.30;99.90
3614;DHT22;1821;50.936;6.854;2023-03-04T04:13:42;4.30;99.90
3614;DHT22;1821;50.936;6.854;2023-03-04T04:14:24;4.30;99.90
3614;DHT22;1821;50.936;6.854;2023-03-04T04:15:50;4.30;99.90
3614;DHT22;1821;50.936;6.854;2023-03-04T04:16:32;4.20;99.90
3614;DHT22;1821;50.936;6.854;2023-03-04T04:17:14;4.50;99.90
3614;DHT22;1821;50.936;6.854;2023-03-04T04:17:56;4.40;99.90
3614;DHT22;1821;50.936;6.854;2023-03-04T04:18:38;4.50;99.90
3614;DHT22;1821;50.936;6.854;2023-03-04T04:19:20;4.20;99.90
3614;DHT22;1821;50.936;6.854;2023-03-04T04:20:03;4.60;99.90
3614;DHT22;1821;50.936;6.854;2023-03-04T04:20:48;4.50;99.90
3614;DHT22;1821;50.936;6.854;2023-03-04T04:21:29;4.20;99.90
3614;DHT22;1821;50.936;6.854;2023-03-04T04:22:16;4.40;99.90
3614;DHT22;1821;50.936;6.854;2023-03-04T04:23:01;4.30;99.90
3614;DHT22;1821;50.936;6.854;2023-03-04T04:23:43;4.30;1.00
3614;DHT22;1821;50.936;6.854;2023-03-04T04:24:25;4.40;1.00
3614;DHT22;1821;50.936;6.854;2023-03-04T04:25:07;4.30;1.00
3614;DHT22;1821;50.936;6.854;2023-03-04T04:25:54;4.30;1.00
3614;DHT22;1821;50.936;6.854;2023-03-04T04:26:38;4.30;99.90
3614;DHT22;1821;50.936;6.854;2023-03-04T04:27:20;4.50;99.90
3614;DHT22;1821;50.936;6.854;2023-03-04T04:28:03;4.30;1.00
3614;DHT22;1821;50.936;6.854;2023-03-04T04:28:45;4.30;1.00
3614;DHT22;1821;50.936;6.854;2023-03-04T04:29:27;4.30;1.00
3614;DHT22;1821;50.936;6.854;2023-03-04T04:30:09;4.20;99.90
3614;DHT22;1821;50.936;6.854;2023-03-04T04:30:51;4.30;1.00
3614;DHT22;1821;50.936;6.854;2023-03-04T04:31:33;4.00;1.00
3614;DHT22;1821;50.936;6.854;2023-03-04T04:32:18;4.40;1.00
3614;DHT22;1821;50.936;6.854;2023-03-04T04:33:00;4.40;1.00
3614;DHT22;1821;50.936;6.854;2023-03-04T04:33:45;4.30;1.00
3614;DHT22;1821;50.936;6.854;2023-03-04T04:34:27;4.30;1.00
3614;DHT22;1821;50.936;6.854;2023-03-04T04:35:11;4.30;1.00
3614;DHT22;1821;50.936;6.854;2023-03-04T04:35:52;4.30;99.90
3614;DHT22;1821;50.936;6.854;2023-03-04T04:36:35;4.60;99.90
3614;DHT22;1821;50.936;6.854;2023-03-04T04:37:17;4.40;99.90
3614;DHT22;1821;50.936;6.854;2023-03-04T04:37:59;4.50;99.90
3614;DHT22;1821;50.936;6.854;2023-03-04T04:38:41;4.30;1.00
3614;DHT22;1821;50.936;6.854;2023-03-04T04:39:23;4.30;99.90
3614;DHT22;1821;50.936;6.854;2023-03-04T04:40:05;4.40;99.90
3614;DHT22;1821;50.936;6.854;2023-03-04T04:40:47;4.40;99.90
3614;DHT22;1821;50.936;6.854;2023-03-04T04:41:37;4.30;17.80
3614;DHT22;1821;50.936;6.854;2023-03-04T04:42:19;4.30;16.50
3614;DHT22;1821;50.936;6.854;2023-03-04T04:43:03;4.20;99.90
3614;DHT22;1821;50.936;6.854;2023-03-04T04:43:45;4.40;99.90
3614;DHT22;1821;50.936;6.854;2023-03-04T04:44:27;4.50;1.00
3614;DHT22;1821;50.936;6.854;2023-03-04T04:45:09;4.30;59.90
3614;DHT22;1821;50.936;6.854;2023-03-04T04:45:52;4.40;64.40
3614;DHT22;1821;50.936;6.854;2023-03-04T04:46:34;4.30;99.90
3614;DHT22;1821;50.936;6.854;2023-03-04T04:47:18;4.30;87.20
3614;DHT22;1821;50.936;6.854;2023-03-04T04:48:01;4.40;30.00
3614;DHT22;1821;50.936;6.854;2023-03-04T04:48:43;4.30;3.10
3614;DHT22;1821;50.936;6.854;2023-03-04T04:49:25;4.30;26.80
3614;DHT22;1821;50.936;6.854;2023-03-04T04:50:07;4.40;1.00
3614;DHT22;1821;50.936;6.854;2023-03-04T04:50:53;4.20;1.00
3614;DHT22;1821;50.936;6.854;2023-03-04T04:51:37;4.40;59.20
3614;DHT22;1821;50.936;6.854;2023-03-04T04:52:19;4.70;32.80
3614;DHT22;1821;50.936;6.854;2023-03-04T04:53:01;4.30;1.00
3614;DHT22;1821;50.936;6.854;2023-03-04T04:54:26;4.20;1.00
3614;DHT22;1821;50.936;6.854;2023-03-04T04:55:10;4.40;1.00
3614;DHT22;1821;50.936;6.854;2023-03-04T04:55:52;4.40;1.00
3614;DHT22;1821;50.936;6.854;2023-03-04T04:56:34;4.60;1.00